createdAt,value
2023-02-08T00:01:26.394Z,102987.50
2023-02-08T00:03:53.142Z,102980.00
2023-02-08T00:06:19.837Z,102978.78
2023-02-08T00:08:46.727Z,102978.91
2023-02-08T00:11:13.372Z,102980.91
2023-02-08T00:13:42.265Z,102982.44
2023-02-08T00:16:09.512Z,102977.50
2023-02-08T00:18:35.998Z,102971.03
2023-02-08T00:21:07.749Z,102967.44
2023-02-08T00:23:34.418Z,102972.91
2023-02-08T00:26:00.836Z,102972.13
2023-02-08T00:28:27.330Z,102981.59
2023-02-08T00:30:53.959Z,102976.53
2023-02-08T00:33:20.754Z,102975.47
2023-02-08T00:35:47.242Z,102975.47
2023-02-08T00:38:13.746Z,102983.44
2023-02-08T00:40:40.562Z,102974.94
2023-02-08T00:43:07.334Z,102975.75
2023-02-08T00:45:34.077Z,102966.69
2023-02-08T00:48:00.622Z,102973.91
2023-02-08T00:50:27.125Z,102975.56
2023-02-08T00:52:53.554Z,102966.34
2023-02-08T00:55:19.954Z,102973.09
2023-02-08T00:57:46.375Z,102976.34
2023-02-08T01:00:13.252Z,102988.94
2023-02-08T01:02:39.707Z,102989.16
2023-02-08T01:05:06.453Z,102990.09
2023-02-08T01:07:32.932Z,102991.34
2023-02-08T01:10:00.595Z,102999.66
2023-02-08T01:12:27.103Z,102991.28
2023-02-08T01:14:53.510Z,103001.78
2023-02-08T01:17:19.895Z,102999.50
2023-02-08T01:19:46.392Z,102998.31
2023-02-08T01:22:12.876Z,103000.03
2023-02-08T01:24:39.302Z,102997.94
2023-02-08T01:27:05.707Z,103000.56
2023-02-08T01:29:32.137Z,103002.22
2023-02-08T01:31:58.546Z,102997.28
2023-02-08T01:34:24.950Z,103002.22
2023-02-08T01:36:51.401Z,103009.09
2023-02-08T01:39:17.850Z,103006.72
2023-02-08T01:41:46.494Z,103009.88
2023-02-08T01:44:13.468Z,103010.31
2023-02-08T01:46:42.265Z,103006.34
2023-02-08T01:49:14.736Z,103004.53
2023-02-08T01:51:55.310Z,102996.97
2023-02-08T01:54:25.022Z,103005.03
2023-02-08T01:56:51.822Z,103001.69
2023-02-08T01:59:24.040Z,102999.09
2023-02-08T02:01:54.533Z,103001.72
2023-02-08T02:04:21.914Z,103004.38
2023-02-08T02:06:54.527Z,103005.56
2023-02-08T02:09:26.259Z,103005.81
2023-02-08T02:11:54.567Z,103006.59
2023-02-08T02:14:22.279Z,103008.34
2023-02-08T02:16:48.897Z,103001.06
2023-02-08T02:19:31.254Z,103004.91
2023-02-08T02:22:30.056Z,103003.72
2023-02-08T02:25:41.540Z,103009.81
2023-02-08T02:28:45.626Z,103010.38
2023-02-08T02:31:15.062Z,103012.91
2023-02-08T02:33:58.491Z,103012.09
2023-02-08T02:36:37.016Z,103023.25
2023-02-08T02:39:20.969Z,103022.03
2023-02-08T02:42:19.694Z,103011.53
2023-02-08T02:44:58.300Z,103023.22
2023-02-08T02:48:10.302Z,103032.28
2023-02-08T02:51:15.385Z,103025.75
2023-02-08T02:53:56.016Z,103036.69
2023-02-08T02:56:27.604Z,103021.53
2023-02-08T02:58:59.062Z,103027.75
2023-02-08T03:01:26.130Z,103028.16
2023-02-08T03:03:54.447Z,103030.78
2023-02-08T03:06:36.118Z,103025.75
2023-02-08T03:09:30.821Z,103024.69
2023-02-08T03:12:11.185Z,103024.28
2023-02-08T03:14:46.458Z,103029.63
2023-02-08T03:17:31.443Z,103027.09
2023-02-08T03:20:24.028Z,103030.94
2023-02-08T03:22:59.444Z,103037.19
2023-02-08T03:25:42.691Z,103034.16
2023-02-08T03:28:28.713Z,103042.91
2023-02-08T03:31:11.537Z,103038.41
2023-02-08T03:33:58.133Z,103039.19
2023-02-08T03:36:47.708Z,103039.97
2023-02-08T03:39:20.977Z,103048.22
2023-02-08T03:41:51.523Z,103045.28
2023-02-08T03:44:23.596Z,103039.31
2023-02-08T03:46:54.993Z,103035.06
2023-02-08T03:49:27.662Z,103036.41
2023-02-08T03:51:57.635Z,103032.31
2023-02-08T03:54:28.131Z,103039.75
2023-02-08T03:57:13.573Z,103041.59
2023-02-08T03:59:43.572Z,103041.16
2023-02-08T04:02:16.875Z,103032.66
2023-02-08T04:04:46.965Z,103024.94
2023-02-08T04:07:14.063Z,103027.59
2023-02-08T04:09:40.522Z,103034.22
2023-02-08T04:12:07.421Z,103038.69
2023-02-08T04:14:33.871Z,103029.16
2023-02-08T04:17:00.313Z,103028.38
2023-02-08T04:19:26.758Z,103021.44
2023-02-08T04:21:53.177Z,103023.13
2023-02-08T04:24:20.275Z,103014.94
2023-02-08T04:26:47.225Z,103016.50
2023-02-08T04:29:13.819Z,103020.63
2023-02-08T04:31:40.406Z,103011.22
2023-02-08T04:34:07.036Z,103015.34
2023-02-08T04:36:33.500Z,103011.13
2023-02-08T04:38:59.933Z,103013.94
2023-02-08T04:41:26.356Z,103009.00
2023-02-08T04:43:52.831Z,103014.53
2023-02-08T04:46:19.333Z,103014.53
2023-02-08T04:48:45.766Z,103024.25
2023-02-08T04:51:12.175Z,103022.25
2023-02-08T04:53:38.624Z,103013.34
2023-02-08T04:56:05.297Z,102998.31
2023-02-08T04:58:31.727Z,103008.31
2023-02-08T05:00:58.157Z,102997.09
2023-02-08T05:03:24.690Z,102998.16
2023-02-08T05:05:58.629Z,102999.53
2023-02-08T05:08:25.264Z,102998.16
2023-02-08T05:10:51.777Z,103000.81
2023-02-08T05:13:18.307Z,103003.19
2023-02-08T05:15:44.759Z,102998.09
2023-02-08T05:18:11.180Z,103007.28
2023-02-08T05:20:37.590Z,103008.84
2023-02-08T05:23:04.084Z,103003.66
2023-02-08T05:25:30.497Z,102998.44
2023-02-08T05:27:56.998Z,103003.66
2023-02-08T05:30:23.439Z,103014.44
2023-02-08T05:32:49.866Z,103005.16
2023-02-08T05:35:16.408Z,103016.03
2023-02-08T05:37:42.803Z,103015.88
2023-02-08T05:40:09.978Z,103013.94
2023-02-08T05:42:36.531Z,103009.00
2023-02-08T05:45:03.026Z,103022.25
2023-02-08T05:47:29.401Z,103022.63
2023-02-08T05:49:55.795Z,103021.91
2023-02-08T05:52:22.240Z,103018.56
2023-02-08T05:54:48.634Z,103019.31
2023-02-08T05:57:15.065Z,103011.91
2023-02-08T05:59:41.455Z,103016.97
2023-02-08T06:02:07.870Z,103022.81
2023-02-08T06:04:34.326Z,103027.47
2023-02-08T06:07:00.705Z,103027.28
2023-02-08T06:09:27.107Z,103029.53
2023-02-08T06:11:53.541Z,103027.47
2023-02-08T06:17:08.628Z,103028.28
2023-02-08T06:19:46.615Z,103033.34
2023-02-08T06:22:13.152Z,103034.63
2023-02-08T06:24:39.555Z,103033.53
2023-02-08T06:27:06.208Z,103040.44
2023-02-08T06:29:32.649Z,103034.72
2023-02-08T06:31:59.203Z,103039.03
2023-02-08T06:34:25.678Z,103033.41
2023-02-08T06:36:52.098Z,103024.00
2023-02-08T06:39:18.523Z,103031.56
2023-02-08T06:41:45.001Z,103026.69
2023-02-08T06:44:11.515Z,103018.38
2023-02-08T06:46:37.960Z,103025.63
2023-02-08T06:49:04.395Z,103024.25
2023-02-08T06:51:30.898Z,103019.41
2023-02-08T06:53:57.353Z,103029.69
2023-02-08T06:56:23.789Z,103033.13
2023-02-08T06:58:50.392Z,103032.59
2023-02-08T07:01:16.833Z,103036.31
2023-02-08T07:03:43.310Z,103030.81
2023-02-08T07:06:17.625Z,103035.25
2023-02-08T07:08:44.837Z,103037.66
2023-02-08T07:11:14.313Z,103044.94
2023-02-08T07:13:40.767Z,103044.19
2023-02-08T07:16:09.325Z,103044.13
2023-02-08T07:18:37.017Z,103048.94
2023-02-08T07:21:03.870Z,103051.50
2023-02-08T07:23:30.505Z,103048.34
2023-02-08T07:26:02.050Z,103053.94
2023-02-08T07:28:29.151Z,103049.53
2023-02-08T07:31:05.185Z,103053.13
2023-02-08T07:33:31.686Z,103050.47
2023-02-08T07:35:58.343Z,103049.69
2023-02-08T07:38:24.821Z,103050.47
2023-02-08T07:40:51.304Z,103051.69
2023-02-08T07:43:17.739Z,103048.72
2023-02-08T07:45:44.434Z,103052.84
2023-02-08T07:48:10.823Z,103061.22
2023-02-08T07:50:37.361Z,103053.66
2023-02-08T07:53:03.783Z,103049.75
2023-02-08T07:55:32.665Z,103047.97
2023-02-08T07:57:59.161Z,103054.34
2023-02-08T08:00:26.926Z,103047.31
2023-02-08T08:02:53.972Z,103047.34
2023-02-08T08:05:21.640Z,103049.09
2023-02-08T08:07:48.031Z,103048.50
2023-02-08T08:10:14.548Z,103047.28
2023-02-08T08:12:41.846Z,103042.94
2023-02-08T08:15:08.504Z,103054.38
2023-02-08T08:17:53.149Z,103046.66
2023-02-08T08:20:19.618Z,103058.56
2023-02-08T08:22:46.988Z,103056.84
2023-02-08T08:25:14.055Z,103054.75
2023-02-08T08:27:41.091Z,103054.44
2023-02-08T08:30:13.530Z,103045.47
2023-02-08T08:32:40.254Z,103050.97
2023-02-08T08:35:07.810Z,103050.66
2023-02-08T08:37:35.147Z,103051.13
2023-02-08T08:40:01.962Z,103048.97
2023-02-08T08:42:28.442Z,103044.09
2023-02-08T08:44:55.079Z,103054.56
2023-02-08T08:47:21.717Z,103055.53
2023-02-08T08:49:48.334Z,103051.22
2023-02-08T08:52:17.692Z,103048.16
2023-02-08T08:54:44.162Z,103045.75
2023-02-08T08:57:10.628Z,103044.97
2023-02-08T08:59:37.024Z,103052.22
2023-02-08T09:02:07.146Z,103047.06
2023-02-08T09:04:37.111Z,103043.00
2023-02-08T09:07:03.528Z,103050.44
2023-02-08T09:09:30.050Z,103049.75
2023-02-08T09:11:56.443Z,103052.28
2023-02-08T09:14:22.946Z,103046.78
2023-02-08T09:16:52.256Z,103046.94
2023-02-08T09:19:19.088Z,103047.47
2023-02-08T09:21:45.757Z,103052.69
2023-02-08T09:24:14.974Z,103049.56
2023-02-08T09:26:41.457Z,103052.00
2023-02-08T09:29:08.518Z,103048.69
2023-02-08T09:31:37.898Z,103043.91
2023-02-08T09:34:06.141Z,103036.91
2023-02-08T09:36:39.660Z,103042.44
2023-02-08T09:39:14.417Z,103042.19
2023-02-08T09:41:52.855Z,103044.72
2023-02-08T09:44:37.457Z,103042.72
2023-02-08T09:47:14.094Z,103036.53
2023-02-08T09:49:58.692Z,103054.34
2023-02-08T09:52:34.556Z,103053.69
2023-02-08T09:55:10.652Z,103054.44
2023-02-08T09:57:38.481Z,103054.69
2023-02-08T10:00:12.821Z,103052.69
2023-02-08T10:02:42.950Z,103044.66
2023-02-08T10:05:14.754Z,103050.53
2023-02-08T10:07:43.010Z,103056.47
2023-02-08T10:10:31.308Z,103064.78
2023-02-08T10:13:14.050Z,103064.28
2023-02-08T10:16:11.468Z,103065.78
2023-02-08T10:18:59.708Z,103064.94
2023-02-08T10:21:48.177Z,103066.72
2023-02-08T10:24:24.828Z,103066.06
2023-02-08T10:27:09.675Z,103049.66
2023-02-08T10:29:45.191Z,103051.03
2023-02-08T10:32:18.800Z,103058.41
2023-02-08T10:34:54.338Z,103065.59
2023-02-08T10:37:30.098Z,103061.13
2023-02-08T10:40:00.172Z,103067.56
2023-02-08T10:42:28.669Z,103063.09
2023-02-08T10:45:22.458Z,103058.59
2023-02-08T10:47:54.839Z,103054.97
2023-02-08T10:50:30.648Z,103055.91
2023-02-08T10:52:57.250Z,103057.03
2023-02-08T10:55:23.891Z,103048.97
2023-02-08T10:57:53.990Z,103046.59
2023-02-08T11:00:26.699Z,103045.88
2023-02-08T11:02:55.269Z,103052.41
2023-02-08T11:05:33.566Z,103048.47
2023-02-08T11:08:16.040Z,103040.16
2023-02-08T11:11:05.059Z,103042.91
2023-02-08T11:13:38.620Z,103035.50
2023-02-08T11:16:09.344Z,103030.41
2023-02-08T11:18:39.854Z,103030.41
2023-02-08T11:21:11.188Z,103019.25
2023-02-08T11:23:41.480Z,103032.91
2023-02-08T11:26:36.492Z,103030.88
2023-02-08T11:29:18.759Z,103029.00
2023-02-08T11:32:26.675Z,103029.97
2023-02-08T11:35:13.262Z,103018.09
2023-02-08T11:37:47.484Z,103013.19
2023-02-08T11:40:21.308Z,103018.28
2023-02-08T11:42:47.967Z,103015.03
2023-02-08T11:45:22.448Z,103019.22
2023-02-08T11:47:50.047Z,103013.00
2023-02-08T11:50:31.834Z,103008.16
2023-02-08T11:53:03.438Z,103005.16
2023-02-08T11:55:31.772Z,103005.38
2023-02-08T11:58:13.179Z,103002.13
2023-02-08T12:00:40.890Z,103008.38
2023-02-08T12:03:38.744Z,103000.50
2023-02-08T12:06:17.901Z,102999.50
2023-02-08T12:08:53.215Z,102995.97
2023-02-08T12:11:37.411Z,102991.31
2023-02-08T12:14:48.289Z,102983.88
2023-02-08T12:17:39.952Z,102978.94
2023-02-08T12:20:28.341Z,102971.00
2023-02-08T12:23:16.675Z,102967.03
2023-02-08T12:26:20.053Z,102957.09
2023-02-08T12:29:12.959Z,102955.25
2023-02-08T12:31:57.664Z,102957.25
2023-02-08T12:34:55.043Z,102959.53
2023-02-08T12:37:52.443Z,102955.31
2023-02-08T12:40:55.155Z,102948.31
2023-02-08T12:43:27.757Z,102942.97
2023-02-08T12:46:16.709Z,102936.03
2023-02-08T12:49:13.831Z,102931.41
2023-02-08T12:52:11.271Z,102927.72
2023-02-08T12:54:42.213Z,102922.00
2023-02-08T12:57:14.274Z,102924.06
2023-02-08T12:59:47.210Z,102915.44
2023-02-08T13:02:44.538Z,102920.31
2023-02-08T13:05:19.296Z,102911.66
2023-02-08T13:07:55.329Z,102907.22
2023-02-08T13:10:51.346Z,102906.44
2023-02-08T13:13:28.287Z,102901.00
2023-02-08T13:16:10.354Z,102898.59
2023-02-08T13:19:11.906Z,102902.31
2023-02-08T13:21:43.108Z,102887.00
2023-02-08T13:24:24.766Z,102898.00
2023-02-08T13:26:51.132Z,102898.00
2023-02-08T13:29:19.699Z,102901.72
2023-02-08T13:32:15.074Z,102895.28
2023-02-08T13:34:49.089Z,102897.47
2023-02-08T13:37:30.950Z,102891.72
2023-02-08T13:40:02.500Z,102890.81
2023-02-08T13:42:38.097Z,102898.22
2023-02-08T13:45:06.333Z,102895.16
2023-02-08T13:47:38.962Z,102894.22
2023-02-08T13:50:46.149Z,102898.06
2023-02-08T13:53:14.789Z,102894.63
2023-02-08T13:56:06.227Z,102894.66
2023-02-08T13:59:00.976Z,102895.38
2023-02-08T14:01:33.149Z,102896.91
2023-02-08T14:04:09.793Z,102891.81
2023-02-08T14:06:58.722Z,102890.31
2023-02-08T14:09:28.703Z,102893.97
2023-02-08T14:12:11.166Z,102894.19
2023-02-08T14:14:38.790Z,102885.84
2023-02-08T14:17:05.151Z,102893.31
2023-02-08T14:19:33.522Z,102894.13
2023-02-08T14:22:11.418Z,102892.06
2023-02-08T14:25:00.502Z,102895.13
2023-02-08T14:27:42.171Z,102891.19
2023-02-08T14:30:08.807Z,102895.34
2023-02-08T14:32:41.334Z,102896.44
2023-02-08T14:35:13.825Z,102896.84
2023-02-08T14:37:42.548Z,102896.47
2023-02-08T14:40:24.383Z,102895.28
2023-02-08T14:42:57.400Z,102905.44
2023-02-08T14:45:44.612Z,102899.66
2023-02-08T14:48:26.866Z,102901.72
2023-02-08T14:51:08.947Z,102908.22
2023-02-08T14:53:50.912Z,102908.22
2023-02-08T14:56:28.160Z,102900.44
2023-02-08T14:59:13.382Z,102899.47
2023-02-08T15:01:47.949Z,102901.59
2023-02-08T15:04:18.279Z,102903.19
2023-02-08T15:06:53.984Z,102901.03
2023-02-08T15:09:29.542Z,102899.16
2023-02-08T15:11:59.549Z,102900.31
2023-02-08T15:14:26.972Z,102898.44
2023-02-08T15:16:55.442Z,102891.50
2023-02-08T15:19:26.048Z,102892.91
2023-02-08T15:21:52.598Z,102894.38
2023-02-08T15:24:24.201Z,102893.22
2023-02-08T15:26:51.875Z,102897.16
2023-02-08T15:29:42.967Z,102900.91
2023-02-08T15:32:16.444Z,102902.56
2023-02-08T15:34:45.303Z,102899.31
2023-02-08T15:37:19.388Z,102903.72
2023-02-08T15:39:50.418Z,102894.94
2023-02-08T15:42:19.538Z,102906.56
2023-02-08T15:44:47.110Z,102897.75
2023-02-08T15:47:18.306Z,102907.94
2023-02-08T15:49:49.795Z,102896.41
2023-02-08T15:52:21.200Z,102905.25
2023-02-08T15:54:48.359Z,102908.94
2023-02-08T15:57:44.611Z,102913.59
2023-02-08T16:00:16.635Z,102913.16
2023-02-08T16:02:44.089Z,102914.78
2023-02-08T16:05:19.382Z,102920.34
2023-02-08T16:07:47.588Z,102926.84
2023-02-08T16:10:24.218Z,102924.31
2023-02-08T16:12:57.406Z,102927.34
2023-02-08T16:15:50.532Z,102935.69
2023-02-08T16:18:49.946Z,102932.22
2023-02-08T16:21:32.836Z,102927.84
2023-02-08T16:24:14.193Z,102936.66
2023-02-08T16:26:45.354Z,102944.03
2023-02-08T16:29:25.904Z,102944.28
2023-02-08T16:32:03.586Z,102944.97
2023-02-08T16:34:35.538Z,102939.63
2023-02-08T16:37:04.650Z,102936.63
2023-02-08T16:39:50.027Z,102939.41
2023-02-08T16:42:21.354Z,102940.56
2023-02-08T16:45:12.984Z,102947.25
2023-02-08T16:47:54.561Z,102948.84
2023-02-08T16:50:23.885Z,102950.94
2023-02-08T16:53:01.684Z,102959.03
2023-02-08T16:55:31.640Z,102964.31
2023-02-08T16:57:59.020Z,102959.47
2023-02-08T17:00:30.003Z,102966.63
2023-02-08T17:02:56.927Z,102964.97
2023-02-08T17:05:29.471Z,102976.25
2023-02-08T17:07:56.129Z,102979.97
2023-02-08T17:10:32.672Z,102978.34
2023-02-08T17:13:17.509Z,102979.47
2023-02-08T17:15:48.541Z,102979.25
2023-02-08T17:18:15.129Z,102979.72
2023-02-08T17:20:42.151Z,102981.53
2023-02-08T17:23:09.919Z,102983.75
2023-02-08T17:25:36.749Z,102990.09
2023-02-08T17:28:06.886Z,102991.47
2023-02-08T17:30:36.827Z,103001.25
2023-02-08T17:33:03.942Z,103004.16
2023-02-08T17:35:30.565Z,103007.34
2023-02-08T17:37:58.605Z,102997.19
2023-02-08T17:40:29.577Z,103006.44
2023-02-08T17:42:55.978Z,103010.34
2023-02-08T17:45:22.828Z,103009.56
2023-02-08T17:47:49.302Z,103018.22
2023-02-08T17:50:18.146Z,103014.31
2023-02-08T17:52:45.714Z,103024.72
2023-02-08T17:55:15.245Z,103029.69
2023-02-08T17:57:43.256Z,103029.25
2023-02-08T18:00:20.339Z,103027.72
2023-02-08T18:02:49.956Z,103030.06
2023-02-08T18:05:18.624Z,103034.88
2023-02-08T18:07:45.585Z,103033.03
2023-02-08T18:10:14.318Z,103035.75
2023-02-08T18:12:41.062Z,103032.09
2023-02-08T18:15:10.068Z,103032.97
2023-02-08T18:17:36.503Z,103034.03
2023-02-08T18:20:03.601Z,103033.16
2023-02-08T18:22:30.177Z,103041.41
2023-02-08T18:24:56.664Z,103038.75
2023-02-08T18:27:25.014Z,103037.00
2023-02-08T18:29:51.782Z,103048.59
2023-02-08T18:32:20.182Z,103043.91
2023-02-08T18:34:46.907Z,103043.91
2023-02-08T18:37:13.559Z,103043.53
2023-02-08T18:39:40.049Z,103040.28
2023-02-08T18:42:06.504Z,103047.53
2023-02-08T18:44:36.646Z,103052.44
2023-02-08T18:47:03.840Z,103056.88
2023-02-08T18:49:31.203Z,103049.47
2023-02-08T18:51:58.140Z,103056.16
2023-02-08T18:54:24.547Z,103060.31
2023-02-08T18:56:53.911Z,103063.25
2023-02-08T18:59:20.445Z,103066.25
2023-02-08T19:01:47.045Z,103068.25
2023-02-08T19:04:13.521Z,103069.72
2023-02-08T19:06:39.982Z,103071.81
2023-02-08T19:09:07.670Z,103073.53
2023-02-08T19:11:37.296Z,103072.56
2023-02-08T19:14:10.206Z,103069.72
2023-02-08T19:16:38.176Z,103073.91
2023-02-08T19:19:06.613Z,103074.41
2023-02-08T19:21:34.655Z,103073.47
2023-02-08T19:24:02.222Z,103076.22
2023-02-08T19:26:31.078Z,103076.66
2023-02-08T19:28:59.337Z,103080.38
2023-02-08T19:31:27.451Z,103077.19
2023-02-08T19:33:58.502Z,103074.31
2023-02-08T19:36:28.732Z,103074.13
2023-02-08T19:38:56.229Z,103083.75
2023-02-08T19:41:28.745Z,103077.38
2023-02-08T19:43:55.362Z,103080.44
2023-02-08T19:46:23.663Z,103081.25
2023-02-08T19:48:52.373Z,103087.25
2023-02-08T19:51:19.552Z,103087.00
2023-02-08T19:53:46.105Z,103091.28
2023-02-08T19:56:16.004Z,103095.81
2023-02-08T19:58:43.181Z,103093.22
2023-02-08T20:01:19.412Z,103104.56
2023-02-08T20:03:47.215Z,103098.31
2023-02-08T20:06:25.463Z,103103.38
2023-02-08T20:08:52.189Z,103102.56
2023-02-08T20:11:27.147Z,103095.13
2023-02-08T20:13:55.255Z,103099.38
2023-02-08T20:16:22.882Z,103096.47
2023-02-08T20:18:50.037Z,103098.72
2023-02-08T20:21:17.395Z,103098.22
2023-02-08T20:23:43.829Z,103097.34
2023-02-08T20:26:27.724Z,103099.16
2023-02-08T20:28:58.916Z,103103.59
2023-02-08T20:31:31.303Z,103101.50
2023-02-08T20:33:59.907Z,103096.66
2023-02-08T20:36:29.247Z,103101.63
2023-02-08T20:38:57.014Z,103102.13
2023-02-08T20:41:25.717Z,103096.00
2023-02-08T20:43:53.177Z,103092.53
2023-02-08T20:46:25.652Z,103094.84
2023-02-08T20:48:53.227Z,103093.00
2023-02-08T20:51:23.108Z,103104.53
2023-02-08T20:53:51.506Z,103102.59
2023-02-08T20:56:24.474Z,103100.81
2023-02-08T20:58:51.765Z,103098.44
2023-02-08T21:01:26.886Z,103097.16
2023-02-08T21:03:58.201Z,103098.56
2023-02-08T21:06:31.143Z,103103.03
2023-02-08T21:08:59.822Z,103102.81
2023-02-08T21:11:29.474Z,103112.41
2023-02-08T21:13:56.906Z,103099.88
2023-02-08T21:16:23.801Z,103104.38
2023-02-08T21:18:50.432Z,103103.78
2023-02-08T21:21:17.520Z,103109.41
2023-02-08T21:23:44.563Z,103102.09
2023-02-08T21:26:14.701Z,103105.13
2023-02-08T21:28:41.495Z,103112.81
2023-02-08T21:31:12.053Z,103101.50
2023-02-08T21:33:38.514Z,103110.47
2023-02-08T21:36:10.209Z,103113.47
2023-02-08T21:38:36.851Z,103115.78
2023-02-08T21:41:10.867Z,103117.38
2023-02-08T21:43:37.748Z,103110.47
2023-02-08T21:46:08.752Z,103109.16
2023-02-08T21:48:55.749Z,103114.31
2023-02-08T21:51:42.665Z,103108.25
2023-02-08T21:54:45.139Z,103111.97
2023-02-08T21:57:22.681Z,103105.56
2023-02-08T21:59:51.527Z,103109.72
2023-02-08T22:02:27.835Z,103114.38
2023-02-08T22:05:18.229Z,103106.94
2023-02-08T22:07:46.619Z,103105.09
2023-02-08T22:10:15.338Z,103100.03
2023-02-08T22:12:42.037Z,103106.44
2023-02-08T22:15:11.666Z,103099.28
2023-02-08T22:17:38.297Z,103116.53
2023-02-08T22:20:05.656Z,103111.47
2023-02-08T22:22:32.089Z,103103.00
2023-02-08T22:24:58.475Z,103106.88
2023-02-08T22:27:25.059Z,103102.09
2023-02-08T22:29:51.486Z,103107.66
2023-02-08T22:32:17.957Z,103114.09
2023-02-08T22:34:45.542Z,103110.47
2023-02-08T22:37:12.989Z,103113.47
2023-02-08T22:39:39.473Z,103117.94
2023-02-08T22:42:13.469Z,103115.69
2023-02-08T22:44:42.272Z,103117.09
2023-02-08T22:47:10.484Z,103113.91
2023-02-08T22:49:38.168Z,103119.09
2023-02-08T22:52:06.249Z,103117.94
2023-02-08T22:54:33.429Z,103124.47
2023-02-08T22:56:59.945Z,103124.91
2023-02-08T22:59:26.550Z,103121.25
2023-02-08T23:01:53.152Z,103124.97
2023-02-08T23:04:19.633Z,103124.31
2023-02-08T23:06:46.978Z,103124.44
2023-02-08T23:09:13.819Z,103117.16
2023-02-08T23:11:40.278Z,103119.75
2023-02-08T23:15:03.187Z,103124.47
2023-02-08T23:17:30.654Z,103110.59
2023-02-08T23:19:57.110Z,103119.63
2023-02-08T23:22:23.495Z,103123.06
2023-02-08T23:24:49.897Z,103120.19
2023-02-08T23:27:25.428Z,103118.94
2023-02-08T23:29:51.859Z,103117.63
2023-02-08T23:32:18.278Z,103123.81
2023-02-08T23:34:44.793Z,103124.38
2023-02-08T23:37:11.209Z,103125.34
2023-02-08T23:39:37.604Z,103124.50
2023-02-08T23:42:04.273Z,103124.34
2023-02-08T23:44:30.720Z,103127.63
2023-02-08T23:46:57.200Z,103118.25
2023-02-08T23:49:23.652Z,103125.69
2023-02-08T23:51:50.062Z,103131.28
2023-02-08T23:54:16.467Z,103131.03
2023-02-08T23:56:42.911Z,103118.41
2023-02-08T23:59:10.643Z,103127.19
